METAR Data
IDs: Format: Raw Decoded Include TAF

Data at: 2028 UTC 19 May 2019

KALO 191954Z 30011G20KT 10SM OVC021 13/08 A2970 RMK AO2 SLP057 T01330083
KALO 191854Z 31013G20KT 10SM OVC021 14/08 A2967 RMK AO2 SLP046 T01390083
KALO 191754Z 30010KT 10SM OVC018 12/08 A2965 RMK AO2 SLP040 T01220083 10122 20100 51027
KALO 191654Z 30012G20KT 10SM OVC017 12/08 A2964 RMK AO2 SLP035 T01170083
KALO 191602Z 28012G18KT 10SM OVC015 12/08 A2962 RMK AO2 T01170078
KALO 191554Z 29012G21KT 10SM OVC014 12/08 A2961 RMK AO2 SLP026 T01170078
KALO 191454Z 30010G21KT 10SM OVC012 12/08 A2957 RMK AO2 SLP013 T01170083 53020
KALO 191354Z 29012G22KT 10SM OVC011 11/08 A2955 RMK AO2 SLP005 T01060078
KALO 191346Z 28011KT 10SM OVC010 11/08 A2955 RMK AO2 T01060083
KALO 191254Z 28012G21KT 10SM OVC009 10/08 A2953 RMK AO2 SLP999 T01000078
KALO 191154Z 27010KT 6SM BR OVC006 10/09 A2951 RMK AO2 SLP992 70182 T01000089 10183 20100 53027
KALO 191054Z 28011KT 5SM BR OVC006 11/09 A2948 RMK AO2 WSHFT 0943 SLP980 T01060094
KALO 191003Z AUTO 29011KT 10SM OVC005 12/11 A2945 RMK AO2 WSHFT 0943 PRESRR T01220111
KALO 190954Z AUTO 28012G22KT 10SM OVC005 13/12 A2943 RMK AO2 SLP963 T01330122
KALO 190854Z AUTO 20013G19KT 10SM OVC006 17/15 A2943 RMK AO2 PK WND 18028/0802 SLP960 T01670150 56022
KALO 190822Z AUTO 19014G22KT 10SM BKN009 OVC014 17/15 A2944 RMK AO2 PK WND 18028/0802 CIG 007V011 T01670150
KALO 190759Z AUTO 17011KT 10SM SCT008 BKN013 OVC085 18/16 A2944 RMK AO2 T01780161
KALO 190754Z AUTO 16013KT 10SM FEW010 BKN017 OVC090 18/17 A2943 RMK AO2 SLP961 T01780167
KALO 190714Z AUTO 15009KT 10SM BKN011 OVC018 18/17 A2945 RMK AO2 T01830167
KALO 190704Z AUTO 15010KT 10SM SCT009 OVC018 18/17 A2945 RMK AO2 PRESFR T01830167
KALO 190654Z AUTO 15012G20KT 10SM SCT009 BKN013 OVC018 18/17 A2947 RMK AO2 SLP973 T01830167
KALO 190651Z AUTO 15014G20KT 10SM BKN009 OVC016 18/17 A2947 RMK AO2 CIG 008V013
KALO 190641Z AUTO 15010KT 10SM BKN013 OVC018 18/17 A2948 RMK AO2 T01830167
KALO 190602Z AUTO 12011G20KT 9SM FEW008 SCT013 OVC021 18/16 A2949 RMK AO2 T01830161
KALO 190554Z AUTO 13012G18KT 10SM BKN008 BKN017 OVC021 18/16 A2949 RMK AO2 CIG 007V012 SLP983 60127 T01780161 10189 20172 402670100 56030
KALO 190545Z AUTO VRB04KT 10SM BKN008 OVC013 18/16 A2950 RMK AO2 CIG 007V011 T01780161
KALO 190525Z AUTO 09007KT 10SM BKN013 BKN017 OVC025 17/16 A2951 RMK AO2 T01720161
KALO 190454Z AUTO 07010KT 10SM FEW007 BKN024 OVC050 17/16 A2952 RMK AO2 RAE39 SLP992 P0003 T01720161
KALO 190437Z AUTO 07011KT 10SM -RA FEW008 BKN023 OVC032 17/16 A2953 RMK AO2 P0003 T01720161
KALO 190354Z AUTO 05010KT 8SM -RA BKN060 OVC075 18/17 A2954 RMK AO2 SLP002 P0003 T01780167
KALO 190254Z AUTO 07008KT 8SM -RA OVC090 17/16 A2958 RMK AO2 SLP017 P0005 60121 T01720161 58020
KALO 190230Z AUTO 06006KT 9SM -RA SCT012 OVC095 17/16 A2958 RMK AO2 P0002 T01720161
KALO 190223Z AUTO 08005KT 9SM -RA BKN012 OVC095 17/16 A2959 RMK AO2 PRESFR P0002 T01720161
KALO 190154Z AUTO 08006KT 6SM -RA BR FEW043 FEW070 OVC100 18/17 A2961 RMK AO2 SLP027 P0025 T01780167
KALO 190139Z AUTO 00000KT 4SM -RA BR SCT075 OVC100 18/17 A2962 RMK AO2 LTG DSNT NE P0022 T01780167
KALO 190108Z AUTO 22004KT 2 1/2SM +RA BR SCT055 BKN070 OVC080 18/17 A2965 RMK AO2 LTG DSNT E AND SE P0007 T01830167
KALO 190054Z 23005KT 3SM VCTS +RA BR FEW015 SCT037 OVC065 18/17 A2964 RMK AO2 LTG DSNT NE AND SE TSE03 SLP038 P0091 T01830167
KALO 190049Z 24006KT 2SM VCTS +RA BR FEW016 BKN070 OVC085 18/17 A2964 RMK AO2 LTG DSNT NE AND SE TSE03 P0088
KALO 190031Z 23010KT 1 3/4SM +RA BR BKN034 OVC070 18/17 A2963 RMK AO2 LTG DSNT E-S TSE03 P0069 T01830172
KALO 190020Z 22012KT 2SM R12/6000VP6000FT VCTS +RA BR BKN032 OVC070 18/17 A2963 RMK AO2 LTG DSNT ALQDS TSE03 P0061 T01830172
KALO 190009Z 22014KT 1SM R12/5500VP6000FT VCTS +RA BR BKN026 19/18 A2963 RMK AO2 LTG DSNT ALQDS TSE03 P0045 T01890178
KALO 182354Z 20012G21KT 1SM R12/3500VP6000FT +TSRA BR FEW015 BKN024 OVC039 19/18 A2964 RMK AO2 LTG DSNT ALQDS RAB15 TSB32 PRESRR SLP038 P0055 60055 T01890178 10267 20189 53015
KALO 182341Z 25012KT 1 3/4SM R12/3000V6000FT +TSRA BR SCT024 OVC030 20/18 A2961 RMK AO2 VIS 1 1/4V3 LTG DSNT SE-W RAB15 TSB32 PRESRR P0017 T02000178
KALO 182332Z 25012G20KT 3SM R12/3000VP6000FT TSRA SCT024 BKN030 OVC060 22/19 A2960 RMK AO2 LTG DSNT ALQDS RAB15 TSB32 P0010 T02170189
KALO 182328Z 27008KT 2 1/2SM R12/4000VP6000FT VCTS +RA BKN028 BKN039 OVC060 23/19 A2960 RMK AO2 LTG DSNT ALQDS RAB15 P0008 T02280194
KALO 182314Z 19008KT 10SM VCTS FEW030 BKN060 OVC070 24/19 A2959 RMK AO2 LTG DSNT ALQDS T02390189
KALO 182254Z 18008KT 10SM OVC065 24/18 A2958 RMK AO2 LTG DSNT N AND S AND SW SLP014 T02440183
KALO 182154Z 17013KT 10SM BKN080 26/19 A2959 RMK AO2 LTG DSNT N AND NW SLP017 T02560189
KALO 182054Z 16016G23KT 10SM FEW026 26/19 A2960 RMK AO2 LTG DSNT N AND NW SLP019 T02610194 50003
KALO 181954Z 18018G23KT 10SM FEW025 SCT033 BKN042 26/19 A2961 RMK AO2 SLP024 T02610194
KALO 181920Z 17015G20KT 10SM BKN023 26/20 A2960 RMK AO2 T02610200
KALO 181854Z 17015KT 10SM FEW021 26/19 A2960 RMK AO2 SLP020 T02560194
KALO 181754Z 14013KT 10SM CLR 24/19 A2959 RMK AO2 SLP016 60000 T02390189 10239 20100 56018
KALO 181654Z 14012KT 10SM FEW120 21/16 A2959 RMK AO2 SLP018 T02060161 $
KALO 181554Z 14014G21KT 10SM FEW009 SCT044 SCT075 17/14 A2957 RMK AO2 RAE1455 SLP012 P0000 T01670139 $
KALO 181454Z 15008KT 10SM -RA FEW038 BKN090 OVC110 14/12 A2964 RMK AO2 RAB42 PRESFR SLP037 P0000 60000 T01390117 58019 $
KALO 181354Z 15010KT 10SM CLR 12/09 A2968 RMK AO2 SLP050 T01220094 $
KALO 181254Z 14010KT 10SM FEW100 11/08 A2969 RMK AO2 LTG DSNT E RAE1159 SLP055 P0000 T01060078 $
KALO 181154Z 12009KT 10SM -RA FEW055 BKN070 OVC090 10/07 A2970 RMK AO2 LTG DSNT SE AND SW RAB24 SLP058 P0000 60000 70006 T01000067 10128 20100 55010 $
KALO 181054Z 12015G21KT 10SM SCT080 10/06 A2969 RMK AO2 SLP056 T01000061 $
KALO 180954Z AUTO 12014G26KT 10SM FEW065 11/06 A2971 RMK AO2 PK WND 12027/0940 SLP062 T01060061 $
KALO 180854Z AUTO 12013G20KT 10SM OVC070 11/08 A2973 RMK AO2 SLP068 T01110078 58006 $